Time;durP1;ratioP1;P1;durP2;ratioP2;P2;SDS_P1;SDS_P2;PMS_P1;PMS_P2;Temp;Humidity;BMP_temperature;BMP_pressure;BME280_temperature;BME280_humidity;BME280_pressure;Samples;Min_cycle;Max_cycle;Signal;HPM_P1;HPM_P2
2021/08/06 00:00:24;;;;;;;8.48;1.88;;;23.20;99.90;;;;;;5093630;28;20084;-69
2021/08/06 00:02:50;;;;;;;4.45;1.60;;;23.10;99.90;;;;;;5093798;28;20537;-69
2021/08/06 00:05:16;;;;;;;2.22;0.98;;;23.10;99.90;;;;;;5094020;28;20086;-70
2021/08/06 00:07:42;;;;;;;2.50;1.70;;;23.10;99.90;;;;;;5092586;28;20081;-69
2021/08/06 00:10:08;;;;;;;5.65;2.30;;;23.10;99.90;;;;;;5075392;28;20501;-69
2021/08/06 00:12:34;;;;;;;3.92;1.80;;;23.00;99.90;;;;;;5075107;28;20039;-69
2021/08/06 00:14:59;;;;;;;6.05;1.92;;;22.90;99.90;;;;;;5093407;28;20024;-70
2021/08/06 00:17:25;;;;;;;7.05;2.03;;;22.90;99.90;;;;;;5089643;28;20012;-69
2021/08/06 00:19:51;;;;;;;3.00;2.05;;;22.90;99.90;;;;;;5093211;28;20038;-69
2021/08/06 00:22:17;;;;;;;2.03;1.25;;;23.00;99.90;;;;;;5093277;28;20032;-69
2021/08/06 00:24:43;;;;;;;9.35;1.90;;;23.00;99.90;;;;;;5075147;28;20048;-69
2021/08/06 00:27:09;;;;;;;4.32;1.73;;;23.00;99.90;;;;;;5093340;28;20028;-69
2021/08/06 00:29:35;;;;;;;4.53;2.33;;;22.80;99.90;;;;;;5074800;28;20023;-69
2021/08/06 00:32:00;;;;;;;3.35;2.28;;;22.80;99.90;;;;;;5074983;28;20578;-69
2021/08/06 00:34:26;;;;;;;4.70;2.53;;;22.80;99.90;;;;;;5074924;28;20030;-68
2021/08/06 00:36:52;;;;;;;3.40;2.30;;;22.70;99.90;;;;;;5093115;28;20374;-69
2021/08/06 00:39:18;;;;;;;5.88;2.30;;;22.70;99.90;;;;;;5074159;28;20420;-69
2021/08/06 00:41:44;;;;;;;5.63;2.05;;;22.70;99.90;;;;;;5093173;28;20032;-69
2021/08/06 00:44:10;;;;;;;2.10;1.90;;;22.80;99.90;;;;;;5074984;28;20085;-69
2021/08/06 00:46:36;;;;;;;2.25;1.73;;;22.80;99.90;;;;;;5073250;28;20020;-69
2021/08/06 00:49:03;;;;;;;4.90;2.20;;;22.80;99.90;;;;;;5074661;28;20170;-69
2021/08/06 00:51:28;;;;;;;2.13;1.92;;;22.70;99.90;;;;;;5055033;28;20067;-69
2021/08/06 00:53:54;;;;;;;7.50;2.08;;;22.70;99.90;;;;;;5055187;28;20165;-69
2021/08/06 00:56:20;;;;;;;2.67;2.08;;;22.70;99.90;;;;;;5085790;28;20024;-69
2021/08/06 00:58:46;;;;;;;2.90;1.75;;;22.70;99.90;;;;;;5074637;28;20032;-69
2021/08/06 01:01:12;;;;;;;5.82;1.95;;;22.70;99.90;;;;;;5092739;28;20031;-70
2021/08/06 01:03:50;;;;;;;2.10;1.90;;;22.60;99.90;;;;;;5074413;28;20039;-69
2021/08/06 01:06:22;;;;;;;1.70;1.50;;;22.60;99.90;;;;;;5092850;28;20028;-69
2021/08/06 01:09:10;;;;;;;4.20;2.45;;;22.60;99.90;;;;;;5074103;28;20028;-69
2021/08/06 01:11:38;;;;;;;1.92;1.77;;;22.50;99.90;;;;;;5092231;28;20024;-69
2021/08/06 01:14:08;;;;;;;4.43;2.50;;;22.40;99.90;;;;;;5099853;28;20024;-70
2021/08/06 01:16:35;;;;;;;5.07;2.10;;;22.40;99.90;;;;;;5101674;28;20019;-70
2021/08/06 01:19:07;;;;;;;3.05;2.38;;;22.40;99.90;;;;;;5078940;28;20562;-69
2021/08/06 01:21:42;;;;;;;4.72;2.20;;;22.40;99.90;;;;;;5097737;28;20446;-70
2021/08/06 01:24:10;;;;;;;3.10;1.95;;;22.40;99.90;;;;;;5092710;28;20478;-69
2021/08/06 01:26:37;;;;;;;3.45;2.40;;;22.40;99.90;;;;;;5073867;28;20558;-69
2021/08/06 01:29:04;;;;;;;2.65;2.38;;;22.30;99.90;;;;;;5073189;28;20055;-69
2021/08/06 01:31:30;;;;;;;4.60;2.25;;;22.30;99.90;;;;;;5091874;28;20025;-69
2021/08/06 01:33:56;;;;;;;2.88;2.45;;;22.20;99.90;;;;;;5073509;28;20085;-69
2021/08/06 01:36:22;;;;;;;5.95;2.47;;;22.20;99.90;;;;;;5073767;28;20120;-69
2021/08/06 01:38:49;;;;;;;5.63;2.53;;;22.20;99.90;;;;;;5091665;28;20068;-69
2021/08/06 01:41:37;;;;;;;9.45;2.70;;;22.30;99.90;;;;;;5073662;28;20446;-68
2021/08/06 01:44:25;;;;;;;6.18;2.47;;;22.20;99.90;;;;;;5080574;28;20044;-68
2021/08/06 01:46:57;;;;;;;3.60;2.30;;;22.30;99.90;;;;;;5071544;28;20039;-67
2021/08/06 01:49:29;;;;;;;2.72;2.53;;;22.30;99.90;;;;;;5057179;28;20098;-69
2021/08/06 01:51:59;;;;;;;6.15;3.13;;;22.30;99.90;;;;;;5073853;28;20093;-69
2021/08/06 01:54:29;;;;;;;4.97;2.17;;;22.30;99.90;;;;;;5073590;28;20111;-69
2021/08/06 01:56:55;;;;;;;4.53;2.42;;;22.30;99.90;;;;;;5073562;28;20028;-70
2021/08/06 01:59:21;;;;;;;5.57;2.90;;;22.30;99.90;;;;;;5090901;28;20066;-69
2021/08/06 02:01:47;;;;;;;3.22;2.40;;;22.30;99.90;;;;;;5091156;28;20056;-69
2021/08/06 02:04:13;;;;;;;6.80;2.78;;;22.40;99.90;;;;;;5073866;28;20079;-69
2021/08/06 02:06:43;;;;;;;4.15;2.80;;;22.30;99.90;;;;;;5073668;28;20103;-69
2021/08/06 02:09:17;;;;;;;3.25;2.95;;;22.20;99.90;;;;;;5091259;28;20024;-69
2021/08/06 02:11:43;;;;;;;6.10;2.78;;;22.20;99.90;;;;;;5091141;28;20420;-68
2021/08/06 02:14:11;;;;;;;3.42;2.90;;;22.20;99.90;;;;;;5091176;28;20024;-69
2021/08/06 02:16:44;;;;;;;4.65;2.72;;;22.20;99.90;;;;;;5073305;28;20016;-68
2021/08/06 02:19:14;;;;;;;7.20;2.63;;;22.10;99.90;;;;;;5071796;28;20031;-69
2021/08/06 02:21:41;;;;;;;2.85;2.47;;;22.20;99.90;;;;;;5068133;28;20513;-69
2021/08/06 02:24:10;;;;;;;2.25;2.03;;;22.20;99.90;;;;;;5072877;28;20032;-68
2021/08/06 02:26:38;;;;;;;4.30;2.30;;;22.10;99.90;;;;;;5073041;28;20136;-69
2021/08/06 02:29:08;;;;;;;2.88;2.67;;;22.10;99.90;;;;;;5091309;28;20028;-69
2021/08/06 02:31:36;;;;;;;10.57;2.85;;;22.00;99.90;;;;;;5091019;28;20179;-68
2021/08/06 02:34:03;;;;;;;4.80;2.65;;;22.00;99.90;;;;;;5091127;28;20028;-69
2021/08/06 02:36:29;;;;;;;3.08;2.72;;;21.90;99.90;;;;;;5073108;28;20031;-69
2021/08/06 02:38:59;;;;;;;3.60;2.40;;;21.90;99.90;;;;;;5090558;28;20035;-68
2021/08/06 02:41:26;;;;;;;3.28;2.40;;;22.00;99.90;;;;;;5091390;28;20016;-69
2021/08/06 02:43:52;;;;;;;4.25;2.10;;;22.00;99.90;;;;;;5091360;28;20032;-69
2021/08/06 02:46:18;;;;;;;4.25;2.53;;;22.10;99.90;;;;;;5091111;28;20031;-69
2021/08/06 02:48:44;;;;;;;5.05;2.45;;;22.10;99.90;;;;;;5090499;28;20036;-68
2021/08/06 02:51:09;;;;;;;5.30;3.38;;;22.10;99.90;;;;;;5071768;28;20072;-69
2021/08/06 02:53:35;;;;;;;3.88;2.70;;;22.00;99.90;;;;;;5072797;28;20034;-69
2021/08/06 02:56:01;;;;;;;5.03;2.50;;;21.90;99.90;;;;;;5091029;28;20028;-68
2021/08/06 02:58:27;;;;;;;3.33;2.80;;;22.00;99.90;;;;;;5072389;28;20085;-69
2021/08/06 03:00:53;;;;;;;3.47;2.60;;;21.90;99.90;;;;;;5072417;28;20032;-68
2021/08/06 03:03:19;;;;;;;4.05;2.58;;;22.00;99.90;;;;;;5072685;28;20183;-67
2021/08/06 03:05:44;;;;;;;4.50;2.33;;;22.10;99.90;;;;;;5090435;28;20028;-68
2021/08/06 03:08:10;;;;;;;2.03;1.83;;;22.10;99.90;;;;;;5083992;28;20053;-70
2021/08/06 03:10:37;;;;;;;2.22;2.03;;;22.30;99.90;;;;;;5074554;28;20031;-69
2021/08/06 03:13:03;;;;;;;4.43;2.67;;;22.30;99.90;;;;;;5094793;28;20017;-69
2021/08/06 03:15:29;;;;;;;3.20;2.20;;;22.20;99.90;;;;;;5094404;28;20114;-70
2021/08/06 03:17:55;;;;;;;2.97;2.55;;;22.10;99.90;;;;;;5076160;28;20126;-69
2021/08/06 03:20:22;;;;;;;8.63;2.55;;;22.10;99.90;;;;;;5075895;28;20195;-68
2021/08/06 03:22:50;;;;;;;4.55;2.10;;;22.10;99.90;;;;;;5076190;28;20113;-70
2021/08/06 03:25:16;;;;;;;3.88;2.35;;;22.00;99.90;;;;;;5093770;28;20196;-69
2021/08/06 03:27:42;;;;;;;2.45;2.08;;;22.00;99.90;;;;;;5075677;28;20031;-69
2021/08/06 03:30:11;;;;;;;7.80;3.00;;;22.00;99.90;;;;;;5094655;28;20051;-69
2021/08/06 03:32:38;;;;;;;4.50;2.33;;;22.00;99.90;;;;;;5076192;28;20110;-68
2021/08/06 03:35:05;;;;;;;2.10;1.90;;;22.10;99.90;;;;;;5075899;28;20027;-69
2021/08/06 03:37:31;;;;;;;3.08;2.55;;;22.10;99.90;;;;;;5094195;28;20422;-69
2021/08/06 03:39:57;;;;;;;6.28;2.33;;;22.20;99.90;;;;;;5076250;28;20088;-69
2021/08/06 03:42:23;;;;;;;6.88;2.60;;;22.20;99.90;;;;;;5094726;28;20020;-69
2021/08/06 03:44:49;;;;;;;3.65;2.95;;;22.10;99.90;;;;;;5094230;28;20115;-70
2021/08/06 03:47:15;;;;;;;2.33;2.13;;;22.10;99.90;;;;;;5094141;28;20497;-69
2021/08/06 03:49:41;;;;;;;6.45;2.03;;;22.20;99.90;;;;;;5076189;28;20036;-69
2021/08/06 03:52:08;;;;;;;4.18;2.30;;;22.20;99.90;;;;;;5075538;28;20093;-68
2021/08/06 03:54:33;;;;;;;4.40;2.08;;;22.20;99.90;;;;;;5076041;28;20042;-68
2021/08/06 03:56:59;;;;;;;9.18;2.35;;;22.10;99.90;;;;;;5076660;28;20020;-69
2021/08/06 03:59:25;;;;;;;4.88;2.35;;;22.00;99.90;;;;;;5076253;28;20351;-68
2021/08/06 04:01:51;;;;;;;1.83;1.70;;;22.10;99.90;;;;;;5075909;28;20024;-69
2021/08/06 04:04:16;;;;;;;3.72;2.95;;;22.00;99.90;;;;;;5076650;28;20189;-68
2021/08/06 04:06:42;;;;;;;1.65;1.55;;;21.90;99.90;;;;;;5094028;28;20032;-69
2021/08/06 04:09:08;;;;;;;4.90;2.25;;;21.90;99.90;;;;;;5075545;28;20112;-68
2021/08/06 04:11:34;;;;;;;3.42;2.00;;;21.90;99.90;;;;;;5093675;28;20012;-68
2021/08/06 04:13:59;;;;;;;3.53;2.40;;;21.90;99.90;;;;;;5093368;28;20024;-69
2021/08/06 04:16:25;;;;;;;3.05;2.38;;;21.90;99.90;;;;;;5075697;28;20054;-69
2021/08/06 04:18:51;;;;;;;3.67;2.45;;;21.90;99.90;;;;;;5093992;28;20028;-69
2021/08/06 04:21:18;;;;;;;10.55;2.80;;;22.00;99.90;;;;;;5092540;28;20039;-69
2021/08/06 04:23:44;;;;;;;11.70;2.35;;;21.90;99.90;;;;;;5075146;28;20412;-70
2021/08/06 04:26:10;;;;;;;8.63;2.65;;;21.90;99.90;;;;;;5093156;28;20032;-67
2021/08/06 04:28:35;;;;;;;4.00;2.05;;;21.90;99.90;;;;;;5074428;28;20031;-68
2021/08/06 04:31:04;;;;;;;3.95;2.05;;;22.00;99.90;;;;;;5092881;28;20020;-69
2021/08/06 04:33:30;;;;;;;5.93;2.20;;;22.10;99.90;;;;;;5074864;28;20036;-70
2021/08/06 04:35:56;;;;;;;4.50;2.30;;;22.10;99.90;;;;;;5055401;28;20039;-68
2021/08/06 04:38:22;;;;;;;4.70;1.77;;;22.20;99.90;;;;;;5073091;28;20034;-69
2021/08/06 04:40:49;;;;;;;3.13;2.00;;;22.20;99.90;;;;;;5067611;28;20110;-69
2021/08/06 04:43:15;;;;;;;4.10;2.22;;;22.30;99.90;;;;;;5074388;28;20047;-70
2021/08/06 04:45:42;;;;;;;3.63;1.73;;;22.40;99.90;;;;;;5074054;28;20030;-69
2021/08/06 04:48:07;;;;;;;7.93;2.58;;;22.40;99.90;;;;;;5092563;28;20379;-69
2021/08/06 04:50:33;;;;;;;8.70;1.90;;;22.40;99.90;;;;;;5092843;28;20087;-69
2021/08/06 04:52:59;;;;;;;2.65;2.10;;;22.30;99.90;;;;;;5074836;28;20178;-69
2021/08/06 04:55:25;;;;;;;5.10;2.10;;;22.30;99.90;;;;;;5092499;28;20099;-69
2021/08/06 04:57:59;;;;;;;2.88;1.90;;;22.30;99.90;;;;;;5074258;28;20103;-69
2021/08/06 05:00:26;;;;;;;6.28;2.45;;;22.30;99.90;;;;;;5094703;28;20020;-69
2021/08/06 05:03:07;;;;;;;4.20;2.50;;;22.40;99.90;;;;;;5075359;28;20107;-69
2021/08/06 05:05:36;;;;;;;7.45;2.60;;;22.30;99.90;;;;;;5074054;28;20074;-72
2021/08/06 05:08:02;;;;;;;13.95;3.47;;;22.30;99.90;;;;;;5092510;28;20112;-70
2021/08/06 05:10:27;;;;;;;11.38;4.50;;;22.50;99.90;;;;;;5092561;28;20066;-69
2021/08/06 05:12:53;;;;;;;11.30;3.75;;;22.40;99.90;;;;;;5074217;28;20032;-69
2021/08/06 05:15:19;;;;;;;5.07;2.45;;;22.40;99.90;;;;;;5092300;28;20024;-69
2021/08/06 05:17:46;;;;;;;6.43;2.88;;;22.40;99.90;;;;;;5092206;28;20107;-70
2021/08/06 05:20:12;;;;;;;7.90;3.33;;;22.40;99.90;;;;;;5074024;28;20119;-68
2021/08/06 05:22:38;;;;;;;9.02;2.53;;;22.40;99.90;;;;;;5091134;28;20394;-68
2021/08/06 05:25:04;;;;;;;14.50;2.60;;;22.50;99.90;;;;;;5091989;28;20012;-70
2021/08/06 05:27:30;;;;;;;12.20;3.20;;;22.60;99.90;;;;;;5074318;28;20032;-70
2021/08/06 05:29:55;;;;;;;14.40;3.85;;;22.70;99.90;;;;;;5092197;28;20031;-69
2021/08/06 05:32:21;;;;;;;11.55;3.30;;;22.80;99.90;;;;;;5091082;28;20482;-68
2021/08/06 05:34:47;;;;;;;13.75;3.67;;;22.90;99.90;;;;;;5073509;28;20020;-69
2021/08/06 05:37:13;;;;;;;20.38;4.13;;;23.00;99.90;;;;;;5073142;28;20028;-69
2021/08/06 05:39:38;;;;;;;7.40;2.90;;;23.10;99.90;;;;;;5073395;28;20024;-70
2021/08/06 05:42:04;;;;;;;5.88;2.22;;;23.20;99.90;;;;;;5091915;28;20097;-67
2021/08/06 05:44:30;;;;;;;5.63;2.40;;;23.30;99.90;;;;;;5092119;28;20107;-66
2021/08/06 05:46:56;;;;;;;3.67;1.52;;;23.40;99.90;;;;;;5073781;28;20470;-67
2021/08/06 05:49:21;;;;;;;5.88;2.28;;;23.40;99.90;;;;;;5078361;28;20024;-66
2021/08/06 05:51:47;;;;;;;17.85;4.43;;;23.40;99.90;;;;;;5083183;28;20068;-66
2021/08/06 05:54:13;;;;;;;23.80;4.68;;;23.40;99.90;;;;;;5095059;28;20053;-66
2021/08/06 05:56:39;;;;;;;15.07;4.35;;;23.40;99.90;;;;;;5075997;28;20085;-67
2021/08/06 05:59:04;;;;;;;13.90;2.83;;;23.40;99.90;;;;;;5075347;28;20286;-67
2021/08/06 06:01:30;;;;;;;8.52;2.60;;;23.40;99.90;;;;;;5073764;28;20024;-67
2021/08/06 06:03:56;;;;;;;10.30;2.28;;;23.50;99.90;;;;;;5073073;28;20030;-67
2021/08/06 06:06:23;;;;;;;7.20;2.13;;;23.60;99.90;;;;;;5091428;28;20482;-66
2021/08/06 06:08:49;;;;;;;4.22;1.80;;;23.70;99.90;;;;;;5090685;28;20024;-69
2021/08/06 06:11:15;;;;;;;5.68;2.58;;;23.70;99.90;;;;;;5091878;28;20036;-66
2021/08/06 06:13:41;;;;;;;5.18;2.83;;;23.80;99.90;;;;;;5073061;28;20073;-66
2021/08/06 06:16:07;;;;;;;3.92;2.88;;;23.60;99.90;;;;;;5091202;28;20043;-67
2021/08/06 06:18:33;;;;;;;13.77;2.50;;;23.60;99.90;;;;;;5091400;28;20024;-67
2021/08/06 06:20:58;;;;;;;11.32;2.60;;;23.60;99.90;;;;;;5090541;28;20036;-67
2021/08/06 06:23:25;;;;;;;7.47;2.75;;;23.60;99.90;;;;;;5073214;28;20507;-67
2021/08/06 06:25:50;;;;;;;4.45;2.28;;;23.70;99.90;;;;;;5072683;28;20160;-67
2021/08/06 06:28:16;;;;;;;7.88;2.80;;;23.70;99.90;;;;;;5091038;28;20036;-66
2021/08/06 06:30:42;;;;;;;6.07;3.10;;;23.70;99.90;;;;;;5071195;28;20040;-66
2021/08/06 06:33:09;;;;;;;11.52;3.83;;;23.80;99.90;;;;;;5090484;28;20025;-67
2021/08/06 06:35:34;;;;;;;16.15;5.78;;;23.80;99.90;;;;;;5070107;28;20099;-67
2021/08/06 06:38:01;;;;;;;16.60;7.13;;;23.60;99.90;;;;;;5111072;28;20016;-67
2021/08/06 06:40:27;;;;;;;16.00;6.55;;;23.40;99.90;;;;;;5093152;28;20020;-67
2021/08/06 06:42:53;;;;;;;16.20;5.53;;;23.40;99.90;;;;;;5073095;28;20020;-67
2021/08/06 06:45:20;;;;;;;14.00;5.20;;;23.50;99.90;;;;;;5072816;28;20389;-67
2021/08/06 06:47:48;;;;;;;13.73;4.95;;;23.40;99.90;;;;;;5072464;28;20027;-68
2021/08/06 06:50:17;;;;;;;8.00;4.00;;;23.50;99.90;;;;;;5091533;28;20028;-68
2021/08/06 06:52:44;;;;;;;18.75;5.65;;;23.70;99.90;;;;;;5091103;28;20371;-67
2021/08/06 06:55:10;;;;;;;9.90;4.15;;;23.70;99.90;;;;;;5091329;28;20038;-67
2021/08/06 06:57:49;;;;;;;10.30;5.03;;;23.90;99.90;;;;;;5073079;28;20382;-66
2021/08/06 07:00:16;;;;;;;9.85;3.58;;;24.20;99.90;;;;;;5090702;28;20073;-67
2021/08/06 07:02:42;;;;;;;10.40;4.07;;;24.30;99.90;;;;;;5072513;28;20044;-67
2021/08/06 07:05:08;;;;;;;9.63;3.75;;;24.20;99.90;;;;;;5090836;28;20023;-66
2021/08/06 07:07:35;;;;;;;9.98;3.78;;;24.40;99.90;;;;;;5069898;28;20028;-67
2021/08/06 07:10:00;;;;;;;10.85;3.33;;;24.70;99.90;;;;;;5089847;28;20100;-67
2021/08/06 07:12:26;;;;;;;8.35;4.22;;;24.80;99.90;;;;;;5072561;28;20064;-66
2021/08/06 07:14:52;;;;;;;9.32;5.18;;;25.10;99.90;;;;;;5072474;28;20482;-67
2021/08/06 07:17:18;;;;;;;11.45;3.88;;;25.20;99.90;;;;;;5071936;28;20017;-68
2021/08/06 07:19:43;;;;;;;12.98;7.75;;;25.30;99.90;;;;;;5072091;28;20046;-67
2021/08/06 07:22:09;;;;;;;8.38;3.45;;;25.30;99.90;;;;;;5090304;28;20101;-66
2021/08/06 07:24:35;;;;;;;9.00;3.50;;;25.10;99.90;;;;;;5090019;28;20084;-67
2021/08/06 07:27:01;;;;;;;12.20;8.07;;;25.00;99.90;;;;;;5090617;28;20047;-66
2021/08/06 07:29:26;;;;;;;8.07;6.57;;;25.00;99.90;;;;;;5072002;28;20032;-67
2021/08/06 07:31:52;;;;;;;9.45;6.93;;;25.00;99.90;;;;;;5090031;28;20047;-68
2021/08/06 07:34:18;;;;;;;14.82;5.13;;;25.10;99.90;;;;;;5090746;28;20024;-68
2021/08/06 07:36:44;;;;;;;20.48;15.57;;;25.20;99.90;;;;;;5090233;28;20031;-66
2021/08/06 07:39:10;;;;;;;25.50;14.60;;;25.30;99.90;;;;;;5090145;28;20031;-66
2021/08/06 07:41:35;;;;;;;9.90;5.65;;;25.40;99.90;;;;;;5090167;28;20478;-67
2021/08/06 07:44:01;;;;;;;20.23;11.70;;;25.30;99.90;;;;;;5090401;28;20024;-67
2021/08/06 07:46:27;;;;;;;8.85;3.78;;;25.30;99.90;;;;;;5090116;28;20058;-68
2021/08/06 07:48:53;;;;;;;14.15;6.97;;;25.30;99.90;;;;;;5071617;28;20028;-68
2021/08/06 07:51:19;;;;;;;21.85;14.13;;;25.30;99.90;;;;;;5090118;28;20016;-67
2021/08/06 07:53:45;;;;;;;26.42;17.60;;;25.00;99.90;;;;;;5090171;28;20073;-66
2021/08/06 07:56:13;;;;;;;12.02;8.57;;;24.80;99.90;;;;;;5073312;28;20024;-67
2021/08/06 07:58:39;;;;;;;29.15;19.38;;;25.00;99.90;;;;;;5094001;28;20027;-68
2021/08/06 08:01:05;;;;;;;23.90;15.82;;;25.20;99.90;;;;;;5094130;28;20067;-67
2021/08/06 08:03:31;;;;;;;19.27;13.75;;;25.40;99.90;;;;;;5075741;28;20493;-67
2021/08/06 08:05:56;;;;;;;9.43;7.10;;;25.60;99.90;;;;;;5093595;28;20034;-67
2021/08/06 08:08:22;;;;;;;5.88;3.60;;;25.80;99.90;;;;;;5094246;28;20032;-67
2021/08/06 08:10:48;;;;;;;13.43;3.97;;;25.90;99.90;;;;;;5093813;28;20024;-66
2021/08/06 08:13:14;;;;;;;10.50;7.75;;;26.10;99.90;;;;;;5093712;28;20027;-68
2021/08/06 08:15:39;;;;;;;4.63;4.07;;;26.10;99.90;;;;;;5075151;28;20028;-67
2021/08/06 08:18:06;;;;;;;7.60;3.08;;;26.10;99.90;;;;;;5075285;28;20145;-67
2021/08/06 08:20:32;;;;;;;9.45;2.63;;;26.00;99.90;;;;;;5093276;28;20066;-67
2021/08/06 08:22:57;;;;;;;7.78;3.30;;;26.00;99.90;;;;;;5093871;28;20563;-66
2021/08/06 08:25:23;;;;;;;4.68;2.53;;;26.10;99.90;;;;;;5094226;28;20030;-67
2021/08/06 08:27:49;;;;;;;4.75;2.30;;;26.10;99.90;;;;;;5093512;28;20035;-67
2021/08/06 08:30:17;;;;;;;6.57;2.58;;;26.10;99.90;;;;;;5075188;28;20177;-67
2021/08/06 08:32:43;;;;;;;9.95;2.60;;;26.20;99.90;;;;;;5093296;28;20016;-67
2021/08/06 08:35:10;;;;;;;8.32;3.03;;;26.20;99.90;;;;;;5093169;28;20107;-66
2021/08/06 08:37:36;;;;;;;8.70;2.20;;;26.20;99.90;;;;;;5083820;28;20035;-67
2021/08/06 08:40:02;;;;;;;7.50;2.15;;;26.10;99.90;;;;;;5093085;28;20028;-67
2021/08/06 08:42:30;;;;;;;5.28;1.85;;;26.20;99.90;;;;;;5074696;28;20363;-68
2021/08/06 08:45:00;;;;;;;5.68;2.50;;;26.30;99.90;;;;;;5093071;28;20094;-66
2021/08/06 08:47:28;;;;;;;5.93;2.57;;;26.40;99.90;;;;;;5074402;28;20024;-67
2021/08/06 08:49:54;;;;;;;9.63;2.28;;;26.50;99.90;;;;;;5074611;28;20517;-67
2021/08/06 08:52:21;;;;;;;5.78;2.70;;;26.60;99.90;;;;;;5074398;28;20032;-66
2021/08/06 08:54:47;;;;;;;8.93;2.72;;;26.70;99.90;;;;;;5092565;28;20055;-67
2021/08/06 08:57:21;;;;;;;11.00;3.65;;;26.70;99.90;;;;;;5092484;28;20035;-67
2021/08/06 08:59:47;;;;;;;6.95;2.25;;;26.90;99.90;;;;;;5092561;28;20390;-68
2021/08/06 09:02:14;;;;;;;14.07;2.60;;;26.90;99.90;;;;;;5074465;28;20024;-67
2021/08/06 09:04:44;;;;;;;5.32;2.30;;;26.80;99.90;;;;;;5092664;28;20024;-67
2021/08/06 09:07:31;;;;;;;11.77;3.38;;;26.60;99.90;;;;;;5073832;28;20032;-67
2021/08/06 09:10:07;;;;;;;12.27;2.67;;;26.60;99.90;;;;;;5092248;28;20028;-67
2021/08/06 09:12:59;;;;;;;8.13;2.85;;;26.60;99.90;;;;;;5091962;28;20059;-67
2021/08/06 09:15:44;;;;;;;6.90;3.17;;;26.70;99.90;;;;;;5074440;28;20043;-67
2021/08/06 09:18:36;;;;;;;8.52;2.97;;;26.70;99.90;;;;;;5092260;28;20030;-67
2021/08/06 09:21:18;;;;;;;15.20;5.07;;;26.30;99.90;;;;;;5092624;28;20506;-67
2021/08/06 09:23:46;;;;;;;;;;;26.30;99.90;;;;;;5074685;28;20039;-68
2021/08/06 09:26:29;;;;;;;7.90;2.28;;;26.50;99.90;;;;;;5092326;28;19916;-67
2021/08/06 09:29:00;;;;;;;11.68;3.00;;;27.00;99.90;;;;;;5092492;28;20435;-67
2021/08/06 09:31:26;;;;;;;7.78;2.85;;;27.30;99.90;;;;;;5092293;28;20276;-68
2021/08/06 09:34:27;;;;;;;9.27;2.72;;;27.70;99.90;;;;;;5092092;28;20052;-67
2021/08/06 09:37:10;;;;;;;6.32;2.97;;;28.10;99.90;;;;;;5073538;28;20085;-67
2021/08/06 09:39:43;;;;;;;8.68;3.33;;;28.10;99.90;;;;;;5073293;28;20024;-66
2021/08/06 09:42:29;;;;;;;6.57;2.97;;;28.20;99.90;;;;;;5091813;28;20656;-66
2021/08/06 09:45:07;;;;;;;12.18;3.28;;;28.10;99.90;;;;;;5092124;28;20052;-68
2021/08/06 09:47:36;;;;;;;5.78;2.55;;;28.00;99.90;;;;;;5091535;28;20119;-67
2021/08/06 09:50:05;;;;;;;8.38;3.33;;;27.90;99.90;;;;;;5073507;28;20032;-67
2021/08/06 09:52:39;;;;;;;8.10;2.90;;;27.80;99.90;;;;;;5091833;28;20012;-66
2021/08/06 09:55:07;;;;;;;5.85;2.33;;;27.90;99.90;;;;;;5074019;28;20024;-67
2021/08/06 09:57:33;;;;;;;6.18;2.42;;;27.90;99.90;;;;;;5073552;28;20077;-66
2021/08/06 10:00:00;;;;;;;9.40;2.55;;;27.60;99.90;;;;;;5073731;28;20035;-68
2021/08/06 10:02:30;;;;;;;6.93;3.08;;;27.50;99.90;;;;;;5073103;28;20501;-67
2021/08/06 10:04:58;;;;;;;13.00;3.77;;;27.30;99.90;;;;;;5091765;28;20063;-67
2021/08/06 10:07:25;;;;;;;9.80;3.50;;;27.20;99.90;;;;;;5073154;28;20309;-68
2021/08/06 10:09:51;;;;;;;6.43;3.53;;;27.20;99.90;;;;;;5091231;28;20102;-67
2021/08/06 10:12:17;;;;;;;8.07;3.50;;;27.30;99.90;;;;;;5072952;28;20185;-67
2021/08/06 10:14:43;;;;;;;13.52;3.53;;;27.30;99.90;;;;;;5073965;28;20024;-68
2021/08/06 10:17:10;;;;;;;8.38;3.17;;;27.20;99.90;;;;;;5091389;28;20018;-68
2021/08/06 10:19:36;;;;;;;8.93;3.28;;;27.30;99.90;;;;;;5090925;28;20028;-66
2021/08/06 10:22:03;;;;;;;9.02;3.10;;;27.10;99.90;;;;;;5072607;28;20035;-67
2021/08/06 10:24:29;;;;;;;6.03;2.45;;;27.10;99.90;;;;;;5091019;28;20024;-67
2021/08/06 10:26:56;;;;;;;9.70;3.65;;;27.30;99.90;;;;;;5091186;28;20020;-67
2021/08/06 10:29:22;;;;;;;6.63;3.08;;;27.40;99.90;;;;;;5090793;28;20043;-67
2021/08/06 10:32:09;;;;;;;7.63;2.25;;;27.50;99.90;;;;;;5072913;28;20028;-67
2021/08/06 10:34:54;;;;;;;9.60;3.17;;;27.70;99.90;;;;;;5072759;28;20024;-68
2021/08/06 10:37:53;;;;;;;8.90;3.42;;;27.60;99.90;;;;;;5075694;28;20374;-68
2021/08/06 10:43:08;;;;;;;8.23;2.63;;;26.80;99.90;;;;;;5090925;28;20028;-68
2021/08/06 10:45:51;;;;;;;7.38;4.07;;;26.70;99.90;;;;;;5091619;28;20028;-68
2021/08/06 10:48:31;;;;;;;7.57;3.15;;;26.60;99.90;;;;;;5090933;28;20407;-67
2021/08/06 10:51:15;;;;;;;8.40;2.70;;;26.50;99.90;;;;;;5072602;28;20012;-67
2021/08/06 10:53:43;;;;;;;14.52;4.40;;;26.40;99.90;;;;;;5086350;28;20062;-66
2021/08/06 10:56:18;;;;;;;11.88;3.80;;;26.30;99.90;;;;;;5052474;28;20490;-69
2021/08/06 10:58:51;;;;;;;8.25;3.00;;;26.20;99.90;;;;;;5065397;28;20063;-67
2021/08/06 11:01:29;;;;;;;12.90;2.88;;;26.10;99.90;;;;;;5091806;28;20024;-68
2021/08/06 11:03:57;;;;;;;6.95;2.55;;;25.90;99.90;;;;;;5072837;28;20122;-67
2021/08/06 11:06:33;;;;;;;13.55;3.28;;;25.80;99.90;;;;;;5072174;28;20035;-66
2021/08/06 11:08:59;;;;;;;15.93;3.78;;;25.90;99.90;;;;;;5072042;28;20173;-67
2021/08/06 11:11:47;;;;;;;10.35;3.40;;;26.00;99.90;;;;;;5090830;28;20095;-67
2021/08/06 11:14:28;;;;;;;10.45;3.45;;;26.20;99.90;;;;;;5072291;28;20030;-68
2021/08/06 11:17:06;;;;;;;7.05;3.65;;;26.10;99.90;;;;;;5091246;28;20204;-67
2021/08/06 11:19:40;;;;;;;11.15;4.05;;;25.90;99.90;;;;;;5090505;28;20035;-68
2021/08/06 11:22:09;;;;;;;8.30;3.47;;;25.90;99.90;;;;;;5090642;28;20028;-68
2021/08/06 11:24:39;;;;;;;9.68;3.70;;;26.00;99.90;;;;;;5091341;28;20500;-67
2021/08/06 11:27:05;;;;;;;16.10;3.50;;;26.20;99.90;;;;;;5090450;28;20039;-67
2021/08/06 11:29:31;;;;;;;13.93;3.75;;;26.20;99.90;;;;;;5090126;28;20036;-67
2021/08/06 11:32:06;;;;;;;16.52;4.15;;;26.20;99.90;;;;;;5092695;28;20024;-67
2021/08/06 11:34:56;;;;;;;11.65;5.15;;;26.10;99.90;;;;;;5094574;28;20024;-68
2021/08/06 11:37:24;;;;;;;11.98;3.75;;;26.20;99.90;;;;;;5076432;28;20023;-68
2021/08/06 11:40:00;;;;;;;10.82;3.67;;;26.00;99.90;;;;;;5093746;28;20103;-66
2021/08/06 11:42:26;;;;;;;13.20;4.13;;;25.90;99.90;;;;;;5093917;28;20024;-66
2021/08/06 11:44:55;;;;;;;11.15;3.42;;;25.70;99.90;;;;;;5076576;28;20366;-67
2021/08/06 11:47:45;;;;;;;9.90;4.40;;;25.70;99.90;;;;;;5095022;28;20059;-69
2021/08/06 11:50:17;;;;;;;9.63;3.97;;;25.90;99.90;;;;;;5077434;28;20024;-68
2021/08/06 11:52:50;;;;;;;15.82;3.90;;;26.00;99.90;;;;;;5095100;28;20023;-66
2021/08/06 11:55:19;;;;;;;13.93;3.85;;;26.30;99.90;;;;;;5096043;28;20024;-67
2021/08/06 11:57:55;;;;;;;13.50;3.72;;;26.40;99.90;;;;;;5094111;28;20035;-68
2021/08/06 12:00:23;;;;;;;10.68;3.75;;;26.50;99.90;;;;;;5075418;28;20020;-67
2021/08/06 12:03:13;;;;;;;6.57;3.35;;;26.50;99.90;;;;;;5093395;28;20085;-66
2021/08/06 12:05:50;;;;;;;10.05;2.97;;;26.60;99.90;;;;;;5075419;28;20028;-67
2021/08/06 12:08:17;;;;;;;11.40;3.50;;;26.60;99.90;;;;;;5075458;28;20028;-67
2021/08/06 12:10:45;;;;;;;11.38;3.33;;;26.60;99.90;;;;;;5074890;28;20420;-66
2021/08/06 12:13:12;;;;;;;6.25;2.95;;;26.60;99.90;;;;;;5075496;28;20020;-67
2021/08/06 12:15:39;;;;;;;7.38;2.55;;;26.60;99.90;;;;;;5093695;28;20020;-68
2021/08/06 12:18:17;;;;;;;6.97;2.80;;;26.80;99.90;;;;;;5093593;28;20077;-68
2021/08/06 12:21:25;;;;;;;5.93;2.75;;;27.00;99.90;;;;;;5075203;28;20117;-70
2021/08/06 12:23:53;;;;;;;7.32;3.33;;;27.00;99.90;;;;;;5085361;28;20020;-70
2021/08/06 12:26:43;;;;;;;6.97;2.90;;;27.10;99.90;;;;;;5075517;28;20020;-70
2021/08/06 12:29:19;;;;;;;10.32;3.25;;;27.10;99.90;;;;;;5074434;28;20277;-71
2021/08/06 12:32:03;;;;;;;9.13;3.17;;;27.10;99.90;;;;;;5074908;28;20020;-71
2021/08/06 12:34:37;;;;;;;6.30;2.60;;;27.00;99.90;;;;;;5075372;28;20031;-71
2021/08/06 12:37:07;;;;;;;11.80;3.25;;;27.10;99.90;;;;;;5093292;28;20059;-70
2021/08/06 12:39:46;;;;;;;5.30;2.47;;;27.20;99.90;;;;;;5092523;28;20474;-70
2021/08/06 12:42:14;;;;;;;4.25;2.20;;;27.20;99.90;;;;;;5093217;28;20127;-71
2021/08/06 12:44:40;;;;;;;10.25;3.28;;;27.40;99.90;;;;;;5093176;28;20028;-70
2021/08/06 12:47:13;;;;;;;7.90;2.92;;;27.40;99.90;;;;;;5093198;28;20039;-69
2021/08/06 12:49:58;;;;;;;8.30;2.90;;;27.50;99.90;;;;;;5092815;28;20035;-69
2021/08/06 12:52:29;;;;;;;8.43;2.67;;;27.60;99.90;;;;;;5093291;28;20382;-70
2021/08/06 12:54:55;;;;;;;6.20;3.20;;;27.60;99.90;;;;;;5093096;28;20024;-70